createdAt,value
2022-09-04T00:01:03.685Z,69.77
2022-09-04T00:04:23.186Z,79.17
2022-09-04T00:07:39.635Z,63.40
2022-09-04T00:10:55.359Z,67.43
2022-09-04T00:14:04.906Z,75.93
2022-09-04T00:17:17.840Z,74.67
2022-09-04T00:20:39.879Z,74.47
2022-09-04T00:23:53.505Z,81.03
2022-09-04T00:27:06.804Z,70.17
2022-09-04T00:30:19.780Z,72.23
2022-09-04T00:33:35.343Z,72.30
2022-09-04T00:36:50.237Z,59.17
2022-09-04T00:40:04.724Z,61.13
2022-09-04T00:43:37.117Z,68.83
2022-09-04T00:47:26.265Z,58.50
2022-09-04T00:50:55.579Z,53.80
2022-09-04T00:54:39.808Z,66.20
2022-09-04T00:58:26.069Z,59.40
2022-09-04T01:01:33.302Z,61.77
2022-09-04T01:04:58.433Z,58.90
2022-09-04T01:08:20.433Z,48.77
2022-09-04T01:11:38.290Z,48.97
2022-09-04T01:14:56.819Z,61.53
2022-09-04T01:18:11.232Z,60.87
2022-09-04T01:21:43.967Z,58.77
2022-09-04T01:25:11.806Z,58.63
2022-09-04T01:28:30.899Z,64.67
2022-09-04T01:31:46.257Z,71.07
2022-09-04T01:35:04.282Z,66.10
2022-09-04T01:38:19.376Z,73.90
2022-09-04T01:41:33.958Z,63.40
2022-09-04T01:44:44.495Z,65.73
2022-09-04T01:47:54.462Z,61.47
2022-09-04T01:51:07.519Z,64.60
2022-09-04T01:54:39.170Z,56.27
2022-09-04T01:58:06.524Z,85.03
2022-09-04T02:01:24.880Z,62.07
2022-09-04T02:04:41.335Z,63.60
2022-09-04T02:07:52.877Z,64.07
2022-09-04T02:11:04.918Z,51.87
2022-09-04T02:14:27.599Z,82.00
2022-09-04T02:17:45.315Z,74.60
2022-09-04T02:21:01.219Z,75.37
2022-09-04T02:24:21.550Z,59.03
2022-09-04T02:27:35.610Z,70.03
2022-09-04T02:30:54.572Z,76.90
2022-09-04T02:34:09.869Z,173.27
2022-09-04T02:37:24.103Z,115.10
2022-09-04T02:40:39.651Z,139.27
2022-09-04T02:44:03.361Z,109.37
2022-09-04T02:47:24.842Z,158.00
2022-09-04T02:50:53.310Z,98.23
2022-09-04T02:54:08.313Z,93.40
2022-09-04T02:57:28.140Z,80.43
2022-09-04T03:00:44.352Z,78.83
2022-09-04T03:04:03.327Z,100.07
2022-09-04T03:07:20.062Z,101.10
2022-09-04T03:10:32.294Z,81.97
2022-09-04T03:13:48.039Z,76.30
2022-09-04T03:17:03.238Z,82.50
2022-09-04T03:20:16.327Z,121.83
2022-09-04T03:23:35.241Z,116.80
2022-09-04T03:26:46.970Z,114.33
2022-09-04T03:30:04.910Z,77.97
2022-09-04T03:33:21.556Z,78.97
2022-09-04T03:36:40.185Z,70.80
2022-09-04T03:40:02.218Z,69.77
2022-09-04T03:43:33.641Z,63.77
2022-09-04T03:46:58.386Z,63.57
2022-09-04T03:50:18.341Z,60.30
2022-09-04T03:53:32.975Z,73.97
2022-09-04T03:57:03.594Z,62.77
2022-09-04T04:00:18.210Z,64.53
2022-09-04T04:03:52.378Z,66.83
2022-09-04T04:07:10.104Z,68.90
2022-09-04T04:10:33.485Z,87.70
2022-09-04T04:14:08.581Z,62.60
2022-09-04T04:17:52.383Z,78.40
2022-09-04T04:21:10.548Z,63.20
2022-09-04T04:24:41.717Z,62.43
2022-09-04T04:28:09.179Z,71.50
2022-09-04T04:31:34.616Z,61.47
2022-09-04T04:35:01.332Z,61.13
2022-09-04T04:38:27.545Z,71.00
2022-09-04T04:42:06.921Z,57.13
2022-09-04T04:45:42.012Z,69.30
2022-09-04T04:49:44.729Z,56.50
2022-09-04T04:53:00.942Z,57.70
2022-09-04T04:56:15.353Z,61.33
2022-09-04T04:59:32.065Z,77.87
2022-09-04T05:02:51.835Z,74.07
2022-09-04T05:06:06.978Z,89.07
2022-09-04T05:09:23.139Z,79.10
2022-09-04T05:12:43.888Z,81.23
2022-09-04T05:16:08.923Z,84.23
2022-09-04T05:19:23.574Z,79.37
2022-09-04T05:22:40.947Z,94.43
2022-09-04T05:25:55.889Z,82.10
2022-09-04T05:29:08.243Z,88.40
2022-09-04T05:32:24.518Z,87.87
2022-09-04T05:35:43.631Z,77.23
2022-09-04T05:39:08.622Z,73.30
2022-09-04T05:42:48.734Z,105.50
2022-09-04T05:46:07.768Z,80.70
2022-09-04T05:49:29.220Z,79.03
2022-09-04T05:53:15.861Z,85.60
2022-09-04T05:57:11.933Z,104.63
2022-09-04T06:00:20.246Z,80.63
2022-09-04T06:03:57.494Z,88.63
2022-09-04T06:07:11.375Z,73.80
2022-09-04T06:10:24.175Z,87.30
2022-09-04T06:14:00.267Z,74.07
2022-09-04T06:17:27.507Z,76.70
2022-09-04T06:20:52.985Z,66.23
2022-09-04T06:24:18.098Z,66.73
2022-09-04T06:27:43.112Z,69.30
2022-09-04T06:31:03.872Z,69.77
2022-09-04T06:34:22.168Z,70.87
2022-09-04T06:37:38.474Z,67.77
2022-09-04T06:41:00.251Z,66.97
2022-09-04T06:44:22.389Z,64.40
2022-09-04T06:47:43.161Z,69.27
2022-09-04T06:51:00.902Z,67.00
2022-09-04T06:54:19.458Z,60.63
2022-09-04T06:58:05.324Z,57.53
2022-09-04T07:01:17.496Z,50.20
2022-09-04T07:04:45.774Z,53.90
2022-09-04T07:08:05.221Z,52.97
2022-09-04T07:11:28.490Z,50.47
2022-09-04T07:15:13.091Z,46.33
2022-09-04T07:18:38.955Z,45.80
2022-09-04T07:22:00.442Z,42.23
2022-09-04T07:25:15.059Z,44.33
2022-09-04T07:28:37.556Z,44.93
2022-09-04T07:31:51.364Z,43.37
2022-09-04T07:35:08.966Z,37.67
2022-09-04T07:38:27.752Z,39.77
2022-09-04T07:41:44.194Z,36.50
2022-09-04T07:44:59.247Z,36.43
2022-09-04T07:48:22.426Z,32.17
2022-09-04T07:51:36.145Z,29.67
2022-09-04T07:55:08.825Z,26.43
2022-09-04T07:58:52.718Z,33.87
2022-09-04T08:02:20.326Z,28.37
2022-09-04T08:05:31.295Z,20.97
2022-09-04T08:09:10.840Z,21.67
2022-09-04T08:12:47.570Z,22.20
2022-09-04T08:16:06.920Z,22.07
2022-09-04T08:19:27.646Z,15.17
2022-09-04T08:22:47.986Z,14.05
2022-09-04T08:26:12.088Z,14.40
2022-09-04T08:29:36.635Z,14.80
2022-09-04T08:33:29.961Z,11.73
2022-09-04T08:36:48.468Z,11.65
2022-09-04T08:40:19.843Z,12.77
2022-09-04T08:43:39.937Z,8.38
2022-09-04T08:47:26.797Z,21.40
2022-09-04T08:51:09.121Z,9.15
2022-09-04T08:55:20.306Z,9.95
2022-09-04T08:59:00.675Z,8.80
2022-09-04T09:03:16.597Z,7.47
2022-09-04T09:07:04.245Z,5.60
2022-09-04T09:10:53.559Z,8.10
2022-09-04T09:14:49.107Z,5.95
2022-09-04T09:18:35.753Z,10.10
2022-09-04T09:21:49.252Z,7.55
2022-09-04T09:25:20.506Z,9.70
2022-09-04T09:29:20.352Z,6.53
2022-09-04T09:33:23.889Z,8.10
2022-09-04T09:37:21.580Z,12.55
2022-09-04T09:40:58.799Z,9.15
2022-09-04T09:44:54.491Z,4.88
2022-09-04T09:48:53.199Z,6.10
2022-09-04T09:52:24.021Z,10.77
2022-09-04T09:55:58.515Z,3.72
2022-09-04T09:59:44.890Z,5.72
2022-09-04T10:03:44.763Z,7.45
2022-09-04T10:07:54.807Z,5.75
2022-09-04T10:11:27.631Z,4.13
2022-09-04T10:15:23.719Z,6.20
2022-09-04T10:19:24.828Z,4.45
2022-09-04T10:23:14.900Z,6.97
2022-09-04T10:27:10.366Z,5.68
2022-09-04T10:30:20.059Z,5.13
2022-09-04T10:33:38.648Z,7.53
2022-09-04T10:36:56.813Z,10.00
2022-09-04T10:40:42.842Z,5.53
2022-09-04T10:44:18.251Z,5.70
2022-09-04T10:48:15.854Z,6.22
2022-09-04T10:52:00.130Z,7.47
2022-09-04T10:55:27.854Z,5.90
2022-09-04T10:59:10.749Z,14.70
2022-09-04T11:03:03.171Z,5.20
2022-09-04T11:06:44.185Z,7.80
2022-09-04T11:10:12.324Z,14.15
2022-09-04T11:14:06.079Z,15.00
2022-09-04T11:18:01.899Z,7.78
2022-09-04T11:22:00.003Z,17.60
2022-09-04T11:25:48.855Z,11.30
2022-09-04T11:29:24.327Z,8.55
2022-09-04T11:33:04.237Z,7.63
2022-09-04T11:36:49.686Z,7.45
2022-09-04T11:40:47.722Z,6.70
2022-09-04T11:44:58.251Z,5.35
2022-09-04T11:48:43.069Z,4.60
2022-09-04T11:52:18.140Z,9.50
2022-09-04T11:55:59.492Z,8.48
2022-09-04T11:59:31.711Z,7.20
2022-09-04T12:03:06.837Z,3.10
2022-09-04T12:06:28.906Z,4.20
2022-09-04T12:10:11.206Z,3.90
2022-09-04T12:14:15.406Z,3.83
2022-09-04T12:17:47.498Z,4.55
2022-09-04T12:21:37.787Z,4.15
2022-09-04T12:25:29.882Z,6.55
2022-09-04T12:29:24.006Z,5.70
2022-09-04T12:33:08.959Z,5.47
2022-09-04T12:37:06.090Z,3.40
2022-09-04T12:40:34.460Z,7.18
2022-09-04T12:44:03.757Z,4.10
2022-09-04T12:47:28.405Z,4.53
2022-09-04T12:50:45.407Z,2.75
2022-09-04T12:54:10.339Z,5.43
2022-09-04T12:57:33.925Z,1.73
2022-09-04T13:00:51.547Z,6.05
2022-09-04T13:04:07.204Z,5.95
2022-09-04T13:07:32.551Z,4.53
2022-09-04T13:10:50.805Z,6.43
2022-09-04T13:14:34.964Z,3.97
2022-09-04T13:17:53.089Z,3.17
2022-09-04T13:21:12.238Z,2.88
2022-09-04T13:24:39.955Z,4.07
2022-09-04T13:28:04.683Z,1.90
2022-09-04T13:31:48.499Z,4.43
2022-09-04T13:35:18.766Z,2.30
2022-09-04T13:39:03.559Z,3.83
2022-09-04T13:43:15.525Z,3.20
2022-09-04T13:46:29.420Z,2.53
2022-09-04T13:51:01.656Z,5.40
2022-09-04T13:54:42.821Z,3.30
2022-09-04T13:58:00.615Z,3.08
2022-09-04T14:01:16.364Z,5.63
2022-09-04T14:04:26.433Z,2.00
2022-09-04T14:07:36.579Z,1.92
2022-09-04T14:11:26.937Z,5.07
2022-09-04T14:15:25.184Z,3.75
2022-09-04T14:19:17.337Z,2.15
2022-09-04T14:22:44.897Z,3.88
2022-09-04T14:25:56.973Z,1.70
2022-09-04T14:29:16.010Z,5.82
2022-09-04T14:32:32.994Z,4.85
2022-09-04T14:35:47.757Z,3.22
2022-09-04T14:39:14.661Z,3.13
2022-09-04T14:42:45.481Z,5.22
2022-09-04T14:46:11.774Z,2.97
2022-09-04T14:49:24.815Z,4.57
2022-09-04T14:52:40.422Z,5.25
2022-09-04T14:56:18.150Z,1.48
2022-09-04T14:59:30.166Z,2.70
2022-09-04T15:02:42.811Z,2.10
2022-09-04T15:05:56.806Z,4.07
2022-09-04T15:09:24.632Z,5.97
2022-09-04T15:12:36.257Z,3.53
2022-09-04T15:15:46.890Z,5.43
2022-09-04T15:19:00.079Z,7.43
2022-09-04T15:22:12.967Z,3.42
2022-09-04T15:25:58.262Z,1.85
2022-09-04T15:29:14.247Z,5.95
2022-09-04T15:32:23.453Z,3.17
2022-09-04T15:35:33.809Z,3.45
2022-09-04T15:38:50.619Z,4.22
2022-09-04T15:41:58.279Z,4.82
2022-09-04T15:45:17.857Z,2.33
2022-09-04T15:48:41.904Z,3.20
2022-09-04T15:51:55.002Z,1.77
2022-09-04T15:55:10.769Z,3.42
2022-09-04T15:58:29.332Z,2.13
2022-09-04T16:01:48.197Z,5.53
2022-09-04T16:05:05.211Z,3.40
2022-09-04T16:08:23.453Z,4.40
2022-09-04T16:11:35.331Z,2.92
2022-09-04T16:14:49.364Z,10.55
2022-09-04T16:17:57.749Z,1.95
2022-09-04T16:21:14.940Z,6.68
2022-09-04T16:24:31.362Z,6.28
2022-09-04T16:27:46.922Z,3.85
2022-09-04T16:30:59.498Z,3.10
2022-09-04T16:34:20.585Z,2.08
2022-09-04T16:37:33.089Z,2.65
2022-09-04T16:40:48.590Z,3.05
2022-09-04T16:44:23.903Z,2.28
2022-09-04T16:47:44.593Z,3.95
2022-09-04T16:50:55.922Z,3.13
2022-09-04T16:54:12.302Z,4.20
2022-09-04T16:57:21.565Z,4.65
2022-09-04T17:00:29.731Z,3.25
2022-09-04T17:03:51.992Z,10.50
2022-09-04T17:07:23.870Z,11.95
2022-09-04T17:10:42.395Z,2.08
2022-09-04T17:13:58.634Z,3.40
2022-09-04T17:17:29.995Z,5.93
2022-09-04T17:22:47.586Z,3.53
2022-09-04T17:29:17.340Z,2.75
2022-09-04T17:29:17.341Z,2.55
2022-09-04T17:31:33.164Z,5.93
2022-09-04T17:40:40.112Z,6.25
2022-09-04T17:40:42.888Z,1.38
2022-09-04T17:42:10.414Z,3.17
2022-09-04T17:45:27.916Z,3.35
2022-09-04T17:48:41.001Z,4.18
2022-09-04T17:51:58.351Z,5.22
2022-09-04T17:55:11.986Z,4.00
2022-09-04T17:58:31.358Z,1.13
2022-09-04T18:01:52.504Z,1.75
2022-09-04T18:05:12.486Z,3.07
2022-09-04T18:08:25.691Z,2.72
2022-09-04T18:11:40.776Z,4.45
2022-09-04T18:15:27.601Z,4.47
2022-09-04T18:18:40.661Z,3.53
2022-09-04T18:22:08.444Z,1.80
2022-09-04T18:25:23.990Z,4.00
2022-09-04T18:28:40.943Z,4.87
2022-09-04T18:37:06.913Z,3.57
2022-09-04T18:37:26.211Z,9.17
2022-09-04T18:39:10.011Z,2.57
2022-09-04T18:50:30.998Z,4.90
2022-09-04T18:50:31.482Z,6.10
2022-09-04T18:50:37.885Z,5.43
2022-09-04T18:53:01.519Z,10.47
2022-09-04T18:56:20.430Z,9.13
2022-09-04T18:59:32.663Z,9.13
2022-09-04T19:02:53.166Z,7.73
2022-09-04T19:06:09.132Z,7.17
2022-09-04T19:09:22.486Z,4.07
2022-09-04T19:12:47.715Z,4.37
2022-09-04T19:16:04.654Z,4.67
2022-09-04T19:19:20.244Z,5.57
2022-09-04T19:22:36.382Z,5.20
2022-09-04T19:25:53.325Z,2.97
2022-09-04T19:29:10.314Z,6.80
2022-09-04T19:32:27.451Z,3.27
2022-09-04T19:35:45.823Z,7.57
2022-09-04T19:45:30.796Z,8.70
2022-09-04T19:46:17.277Z,5.17
2022-09-04T19:46:30.886Z,5.67
2022-09-04T19:51:52.317Z,4.10
2022-09-04T19:53:41.157Z,8.00
2022-09-04T19:57:30.984Z,9.63
2022-09-04T20:00:31.130Z,9.17
2022-09-04T20:03:56.297Z,5.40
2022-09-04T20:07:10.487Z,12.83
2022-09-04T20:10:23.833Z,6.50
2022-09-04T20:13:39.142Z,9.10
2022-09-04T20:17:04.233Z,9.73
2022-09-04T20:20:19.027Z,7.97
2022-09-04T20:23:34.411Z,6.50
2022-09-04T20:26:53.377Z,11.73
2022-09-04T20:30:11.399Z,9.63
2022-09-04T20:33:22.527Z,6.70
2022-09-04T20:36:37.495Z,6.37
2022-09-04T20:39:53.054Z,11.30
2022-09-04T20:43:26.650Z,8.13
2022-09-04T20:52:25.308Z,7.83
2022-09-04T20:52:57.782Z,12.27
2022-09-04T20:54:28.718Z,11.50
2022-09-04T21:03:05.114Z,9.97
2022-09-04T21:03:19.607Z,10.97
2022-09-04T21:05:49.918Z,8.40
2022-09-04T21:09:34.595Z,11.43
2022-09-04T21:12:49.918Z,10.70
2022-09-04T21:16:32.234Z,7.67
2022-09-04T21:20:34.435Z,12.10
2022-09-04T21:24:21.982Z,8.60
2022-09-04T21:28:04.005Z,11.00
2022-09-04T21:31:27.575Z,17.10
2022-09-04T21:34:57.901Z,15.20
2022-09-04T21:38:34.369Z,11.43
2022-09-04T21:42:16.943Z,10.13
2022-09-04T21:45:37.845Z,16.07
2022-09-04T21:49:26.930Z,11.57
2022-09-04T21:52:58.255Z,12.73
2022-09-04T22:00:17.468Z,12.17
2022-09-04T22:02:39.059Z,7.17
2022-09-04T22:03:45.734Z,10.10
2022-09-04T22:09:44.456Z,4.70
2022-09-04T22:13:37.244Z,14.03
2022-09-04T22:14:31.741Z,13.70
2022-09-04T22:18:05.523Z,13.07
2022-09-04T22:21:39.648Z,10.20
2022-09-04T22:25:32.590Z,9.83
2022-09-04T22:29:08.535Z,10.27
2022-09-04T22:33:24.337Z,5.87
2022-09-04T22:37:02.530Z,11.53
2022-09-04T22:40:29.225Z,8.37
2022-09-04T22:43:47.265Z,9.20
2022-09-04T22:47:31.878Z,6.37
2022-09-04T22:50:54.213Z,6.93
2022-09-04T22:54:23.151Z,9.60
2022-09-04T22:57:47.235Z,6.70
2022-09-04T23:01:21.696Z,7.17
2022-09-04T23:04:58.316Z,6.07
2022-09-04T23:13:43.150Z,12.03
2022-09-04T23:13:52.404Z,10.13
2022-09-04T23:16:00.474Z,6.77
2022-09-04T23:26:35.719Z,11.33
2022-09-04T23:26:51.087Z,5.13
2022-09-04T23:27:33.699Z,4.03
2022-09-04T23:30:51.202Z,4.43
2022-09-04T23:34:33.883Z,4.70
2022-09-04T23:38:11.026Z,3.77
2022-09-04T23:41:36.812Z,7.63
2022-09-04T23:45:29.519Z,7.27
2022-09-04T23:49:24.954Z,5.90
2022-09-04T23:52:49.189Z,6.90
2022-09-04T23:56:12.349Z,6.10
2022-09-04T23:59:37.985Z,6.93
